sensor_id;sensor_type;location;lat;lon;timestamp;P1;P2;P0
71097;PMS7003;58754;47.622;-2.986;2023-02-11T00:00:09;20.50;17.00;12.00
71097;PMS7003;58754;47.622;-2.986;2023-02-11T00:02:38;21.75;20.00;14.50
71097;PMS7003;58754;47.622;-2.986;2023-02-11T00:05:04;18.00;16.50;13.25
71097;PMS7003;58754;47.622;-2.986;2023-02-11T00:07:30;19.25;17.25;13.00
71097;PMS7003;58754;47.622;-2.986;2023-02-11T00:09:57;20.50;18.75;15.25
71097;PMS7003;58754;47.622;-2.986;2023-02-11T00:12:23;19.75;14.50;12.00
71097;PMS7003;58754;47.622;-2.986;2023-02-11T00:14:49;23.25;19.75;15.00
71097;PMS7003;58754;47.622;-2.986;2023-02-11T00:17:15;22.00;17.75;12.75
71097;PMS7003;58754;47.622;-2.986;2023-02-11T00:19:41;18.75;13.00;9.75
71097;PMS7003;58754;47.622;-2.986;2023-02-11T00:22:06;20.75;16.25;13.25
71097;PMS7003;58754;47.622;-2.986;2023-02-11T00:24:32;17.25;17.25;14.50
71097;PMS7003;58754;47.622;-2.986;2023-02-11T00:26:58;19.00;18.00;14.00
71097;PMS7003;58754;47.622;-2.986;2023-02-11T00:29:23;21.25;17.50;13.25
71097;PMS7003;58754;47.622;-2.986;2023-02-11T00:31:49;17.75;15.75;12.75
71097;PMS7003;58754;47.622;-2.986;2023-02-11T00:34:15;24.25;19.00;14.50
71097;PMS7003;58754;47.622;-2.986;2023-02-11T00:36:41;18.25;17.25;13.00
71097;PMS7003;58754;47.622;-2.986;2023-02-11T00:39:08;17.25;14.25;11.75
71097;PMS7003;58754;47.622;-2.986;2023-02-11T00:41:33;22.75;18.75;14.50
71097;PMS7003;58754;47.622;-2.986;2023-02-11T00:44:00;20.25;17.00;13.25
71097;PMS7003;58754;47.622;-2.986;2023-02-11T00:46:26;22.25;19.00;13.75
71097;PMS7003;58754;47.622;-2.986;2023-02-11T00:48:52;16.50;15.00;12.00
71097;PMS7003;58754;47.622;-2.986;2023-02-11T00:51:24;20.75;14.00;11.00
71097;PMS7003;58754;47.622;-2.986;2023-02-11T00:53:53;19.00;17.00;14.25
71097;PMS7003;58754;47.622;-2.986;2023-02-11T00:56:19;20.25;16.50;13.75
71097;PMS7003;58754;47.622;-2.986;2023-02-11T00:58:45;17.00;14.25;12.00
71097;PMS7003;58754;47.622;-2.986;2023-02-11T01:01:11;21.00;17.25;13.00
71097;PMS7003;58754;47.622;-2.986;2023-02-11T01:03:37;20.50;16.75;13.75
71097;PMS7003;58754;47.622;-2.986;2023-02-11T01:06:04;18.25;15.50;11.75
71097;PMS7003;58754;47.622;-2.986;2023-02-11T01:08:30;21.00;15.75;13.25
71097;PMS7003;58754;47.622;-2.986;2023-02-11T01:10:57;21.00;17.50;14.75
71097;PMS7003;58754;47.622;-2.986;2023-02-11T01:13:25;21.25;16.25;12.25
71097;PMS7003;58754;47.622;-2.986;2023-02-11T01:15:51;20.00;17.00;13.00
71097;PMS7003;58754;47.622;-2.986;2023-02-11T01:18:17;19.50;16.25;11.50
71097;PMS7003;58754;47.622;-2.986;2023-02-11T01:20:43;19.25;15.25;12.00
71097;PMS7003;58754;47.622;-2.986;2023-02-11T01:23:09;17.75;15.50;12.50
71097;PMS7003;58754;47.622;-2.986;2023-02-11T01:25:35;17.75;16.50;13.25
71097;PMS7003;58754;47.622;-2.986;2023-02-11T01:28:00;18.25;15.00;11.50
71097;PMS7003;58754;47.622;-2.986;2023-02-11T01:30:26;16.25;15.25;12.25
71097;PMS7003;58754;47.622;-2.986;2023-02-11T01:32:52;14.75;13.25;11.25
71097;PMS7003;58754;47.622;-2.986;2023-02-11T01:35:17;17.50;15.25;11.50
71097;PMS7003;58754;47.622;-2.986;2023-02-11T01:37:43;18.00;16.50;14.00
71097;PMS7003;58754;47.622;-2.986;2023-02-11T01:40:13;20.50;15.50;12.00
71097;PMS7003;58754;47.622;-2.986;2023-02-11T01:42:40;15.25;13.75;11.50
71097;PMS7003;58754;47.622;-2.986;2023-02-11T01:48:20;15.50;15.50;10.25
71097;PMS7003;58754;47.622;-2.986;2023-02-11T01:50:54;16.75;15.75;10.25
71097;PMS7003;58754;47.622;-2.986;2023-02-11T01:53:25;18.50;16.00;12.25
71097;PMS7003;58754;47.622;-2.986;2023-02-11T01:56:12;20.50;17.00;11.75
71097;PMS7003;58754;47.622;-2.986;2023-02-11T01:58:59;18.25;15.25;12.00
71097;PMS7003;58754;47.622;-2.986;2023-02-11T02:01:29;15.25;13.75;11.00
71097;PMS7003;58754;47.622;-2.986;2023-02-11T02:03:58;16.75;11.00;7.25
71097;PMS7003;58754;47.622;-2.986;2023-02-11T02:06:34;15.00;12.00;8.00
71097;PMS7003;58754;47.622;-2.986;2023-02-11T02:09:09;13.50;13.50;11.50
71097;PMS7003;58754;47.622;-2.986;2023-02-11T02:11:41;17.25;14.00;11.50
71097;PMS7003;58754;47.622;-2.986;2023-02-11T02:14:07;15.25;14.50;11.25
71097;PMS7003;58754;47.622;-2.986;2023-02-11T02:16:34;10.00;10.00;9.00
71097;PMS7003;58754;47.622;-2.986;2023-02-11T02:24:15;14.25;12.25;8.75
71097;PMS7003;58754;47.622;-2.986;2023-02-11T02:30:15;20.00;14.25;11.00
71097;PMS7003;58754;47.622;-2.986;2023-02-11T02:35:52;16.50;12.25;9.50
71097;PMS7003;58754;47.622;-2.986;2023-02-11T02:41:18;20.75;13.50;10.00
71097;PMS7003;58754;47.622;-2.986;2023-02-11T02:43:47;15.75;13.25;10.00
71097;PMS7003;58754;47.622;-2.986;2023-02-11T02:46:24;15.00;13.75;9.50
71097;PMS7003;58754;47.622;-2.986;2023-02-11T02:48:55;19.75;13.75;10.25
71097;PMS7003;58754;47.622;-2.986;2023-02-11T02:57:34;10.25;6.50;5.25
71097;PMS7003;58754;47.622;-2.986;2023-02-11T03:07:56;13.00;11.50;10.50
71097;PMS7003;58754;47.622;-2.986;2023-02-11T03:10:37;14.00;14.00;10.75
71097;PMS7003;58754;47.622;-2.986;2023-02-11T03:13:07;15.50;14.25;11.75
71097;PMS7003;58754;47.622;-2.986;2023-02-11T03:15:36;15.50;12.75;10.50
71097;PMS7003;58754;47.622;-2.986;2023-02-11T03:18:08;16.00;14.00;11.00
71097;PMS7003;58754;47.622;-2.986;2023-02-11T03:20:37;14.00;12.50;10.00
71097;PMS7003;58754;47.622;-2.986;2023-02-11T03:23:14;12.50;11.00;9.00
71097;PMS7003;58754;47.622;-2.986;2023-02-11T03:26:08;17.75;13.25;9.25
71097;PMS7003;58754;47.622;-2.986;2023-02-11T03:29:05;16.00;14.50;11.00
71097;PMS7003;58754;47.622;-2.986;2023-02-11T03:37:32;14.75;13.75;10.00
71097;PMS7003;58754;47.622;-2.986;2023-02-11T03:40:09;12.75;12.75;10.75
71097;PMS7003;58754;47.622;-2.986;2023-02-11T03:42:40;15.25;12.50;9.75
71097;PMS7003;58754;47.622;-2.986;2023-02-11T03:45:11;16.25;13.50;11.00
71097;PMS7003;58754;47.622;-2.986;2023-02-11T03:47:42;13.50;12.25;10.75
71097;PMS7003;58754;47.622;-2.986;2023-02-11T03:50:11;13.25;11.00;8.25
71097;PMS7003;58754;47.622;-2.986;2023-02-11T03:52:40;16.00;11.50;9.00
71097;PMS7003;58754;47.622;-2.986;2023-02-11T03:55:14;14.25;12.00;9.50
71097;PMS7003;58754;47.622;-2.986;2023-02-11T03:57:43;14.50;13.25;10.50
71097;PMS7003;58754;47.622;-2.986;2023-02-11T04:00:09;12.25;12.25;9.25
71097;PMS7003;58754;47.622;-2.986;2023-02-11T04:02:36;14.75;14.00;10.00
71097;PMS7003;58754;47.622;-2.986;2023-02-11T04:05:03;12.00;11.50;9.00
71097;PMS7003;58754;47.622;-2.986;2023-02-11T04:07:31;14.25;13.00;9.50
71097;PMS7003;58754;47.622;-2.986;2023-02-11T04:09:57;15.00;13.50;11.00
71097;PMS7003;58754;47.622;-2.986;2023-02-11T04:12:23;19.50;14.25;9.00
71097;PMS7003;58754;47.622;-2.986;2023-02-11T04:14:49;16.00;14.25;10.25
71097;PMS7003;58754;47.622;-2.986;2023-02-11T04:17:15;14.00;12.00;9.50
71097;PMS7003;58754;47.622;-2.986;2023-02-11T04:19:40;11.25;11.25;10.25
71097;PMS7003;58754;47.622;-2.986;2023-02-11T04:22:06;12.00;11.00;9.50
71097;PMS7003;58754;47.622;-2.986;2023-02-11T04:24:32;15.00;11.50;9.25
71097;PMS7003;58754;47.622;-2.986;2023-02-11T04:26:58;14.00;11.00;9.75
71097;PMS7003;58754;47.622;-2.986;2023-02-11T04:29:24;12.75;10.25;7.75
71097;PMS7003;58754;47.622;-2.986;2023-02-11T04:31:50;11.75;8.00;6.50
71097;PMS7003;58754;47.622;-2.986;2023-02-11T04:34:16;14.25;9.50;7.00
71097;PMS7003;58754;47.622;-2.986;2023-02-11T04:36:42;13.25;11.00;9.00
71097;PMS7003;58754;47.622;-2.986;2023-02-11T04:39:08;11.25;11.00;8.00
71097;PMS7003;58754;47.622;-2.986;2023-02-11T04:41:33;12.25;10.75;8.25
71097;PMS7003;58754;47.622;-2.986;2023-02-11T04:43:59;12.75;10.75;8.00
71097;PMS7003;58754;47.622;-2.986;2023-02-11T04:46:25;14.75;11.75;10.00
71097;PMS7003;58754;47.622;-2.986;2023-02-11T04:48:50;12.50;10.00;7.00
71097;PMS7003;58754;47.622;-2.986;2023-02-11T04:51:16;14.25;11.25;8.00
71097;PMS7003;58754;47.622;-2.986;2023-02-11T04:53:42;15.50;13.00;11.25
71097;PMS7003;58754;47.622;-2.986;2023-02-11T04:56:08;10.25;10.25;9.00
71097;PMS7003;58754;47.622;-2.986;2023-02-11T04:58:33;14.25;12.00;10.50
71097;PMS7003;58754;47.622;-2.986;2023-02-11T05:01:08;13.25;11.50;10.25
71097;PMS7003;58754;47.622;-2.986;2023-02-11T05:03:36;13.00;11.50;9.50
71097;PMS7003;58754;47.622;-2.986;2023-02-11T05:06:03;9.75;8.50;5.50
71097;PMS7003;58754;47.622;-2.986;2023-02-11T05:08:29;13.50;11.50;9.25
71097;PMS7003;58754;47.622;-2.986;2023-02-11T05:10:55;20.00;12.50;9.75
71097;PMS7003;58754;47.622;-2.986;2023-02-11T05:13:21;14.00;11.50;8.75
71097;PMS7003;58754;47.622;-2.986;2023-02-11T05:15:47;15.75;12.75;10.25
71097;PMS7003;58754;47.622;-2.986;2023-02-11T05:18:13;15.25;11.75;8.25
71097;PMS7003;58754;47.622;-2.986;2023-02-11T05:20:42;10.50;10.50;9.00
71097;PMS7003;58754;47.622;-2.986;2023-02-11T05:23:08;12.50;11.00;10.00
71097;PMS7003;58754;47.622;-2.986;2023-02-11T05:25:34;10.50;10.50;8.75
71097;PMS7003;58754;47.622;-2.986;2023-02-11T05:28:00;10.50;10.00;8.50
71097;PMS7003;58754;47.622;-2.986;2023-02-11T05:30:26;15.00;11.75;10.00
71097;PMS7003;58754;47.622;-2.986;2023-02-11T05:32:52;11.50;9.25;7.50
71097;PMS7003;58754;47.622;-2.986;2023-02-11T05:35:18;13.75;10.25;8.25
71097;PMS7003;58754;47.622;-2.986;2023-02-11T05:37:44;14.25;10.75;9.00
71097;PMS7003;58754;47.622;-2.986;2023-02-11T05:40:10;12.00;9.50;7.75
71097;PMS7003;58754;47.622;-2.986;2023-02-11T05:42:36;13.00;12.00;9.00
71097;PMS7003;58754;47.622;-2.986;2023-02-11T05:45:02;11.00;9.50;7.25
71097;PMS7003;58754;47.622;-2.986;2023-02-11T05:47:29;9.00;9.00;7.50
71097;PMS7003;58754;47.622;-2.986;2023-02-11T05:49:54;16.00;11.50;9.00
71097;PMS7003;58754;47.622;-2.986;2023-02-11T05:52:20;13.50;11.00;9.25
71097;PMS7003;58754;47.622;-2.986;2023-02-11T05:54:47;11.00;9.75;7.75
71097;PMS7003;58754;47.622;-2.986;2023-02-11T05:57:12;10.25;10.25;8.50
71097;PMS7003;58754;47.622;-2.986;2023-02-11T05:59:39;12.50;10.25;8.25
71097;PMS7003;58754;47.622;-2.986;2023-02-11T06:02:05;11.75;11.50;8.50
71097;PMS7003;58754;47.622;-2.986;2023-02-11T06:04:32;10.00;9.25;7.00
71097;PMS7003;58754;47.622;-2.986;2023-02-11T06:06:58;13.50;12.00;9.75
71097;PMS7003;58754;47.622;-2.986;2023-02-11T06:09:24;10.25;10.25;7.50
71097;PMS7003;58754;47.622;-2.986;2023-02-11T06:11:50;10.00;9.00;8.00
71097;PMS7003;58754;47.622;-2.986;2023-02-11T06:14:16;12.50;11.50;8.50
71097;PMS7003;58754;47.622;-2.986;2023-02-11T06:16:42;11.00;9.75;7.00
71097;PMS7003;58754;47.622;-2.986;2023-02-11T06:19:07;14.25;12.00;10.00
71097;PMS7003;58754;47.622;-2.986;2023-02-11T06:21:33;10.75;9.50;8.00
71097;PMS7003;58754;47.622;-2.986;2023-02-11T06:23:59;13.00;10.25;8.00
71097;PMS7003;58754;47.622;-2.986;2023-02-11T06:26:24;12.00;10.00;8.00
71097;PMS7003;58754;47.622;-2.986;2023-02-11T06:28:50;18.75;11.75;9.75
71097;PMS7003;58754;47.622;-2.986;2023-02-11T06:31:16;11.25;9.00;7.00
71097;PMS7003;58754;47.622;-2.986;2023-02-11T06:33:43;12.75;11.25;9.00
71097;PMS7003;58754;47.622;-2.986;2023-02-11T06:36:16;10.00;9.25;8.00
71097;PMS7003;58754;47.622;-2.986;2023-02-11T06:38:43;12.00;12.00;9.25
71097;PMS7003;58754;47.622;-2.986;2023-02-11T06:41:10;13.00;11.00;9.00
71097;PMS7003;58754;47.622;-2.986;2023-02-11T06:43:36;14.25;11.25;9.00
71097;PMS7003;58754;47.622;-2.986;2023-02-11T06:46:02;12.00;11.25;9.25
71097;PMS7003;58754;47.622;-2.986;2023-02-11T06:48:28;11.00;11.00;9.00
71097;PMS7003;58754;47.622;-2.986;2023-02-11T06:50:54;10.25;9.75;8.00
71097;PMS7003;58754;47.622;-2.986;2023-02-11T06:53:19;14.00;11.50;10.00
71097;PMS7003;58754;47.622;-2.986;2023-02-11T06:55:45;10.75;10.50;8.25
71097;PMS7003;58754;47.622;-2.986;2023-02-11T06:58:11;12.75;12.00;10.00
71097;PMS7003;58754;47.622;-2.986;2023-02-11T07:00:36;13.00;11.25;8.75
71097;PMS7003;58754;47.622;-2.986;2023-02-11T07:03:02;8.75;8.75;7.25
71097;PMS7003;58754;47.622;-2.986;2023-02-11T07:05:28;13.25;10.25;8.00
71097;PMS7003;58754;47.622;-2.986;2023-02-11T07:07:54;10.75;10.00;8.00
71097;PMS7003;58754;47.622;-2.986;2023-02-11T07:10:19;14.50;11.25;9.00
71097;PMS7003;58754;47.622;-2.986;2023-02-11T07:12:45;14.25;10.00;8.75
71097;PMS7003;58754;47.622;-2.986;2023-02-11T07:15:11;14.25;11.25;9.25
71097;PMS7003;58754;47.622;-2.986;2023-02-11T07:17:36;9.00;9.00;8.00
71097;PMS7003;58754;47.622;-2.986;2023-02-11T07:20:02;13.25;11.50;8.25
71097;PMS7003;58754;47.622;-2.986;2023-02-11T07:22:28;11.50;9.50;7.50
71097;PMS7003;58754;47.622;-2.986;2023-02-11T07:24:54;13.50;9.50;8.50
71097;PMS7003;58754;47.622;-2.986;2023-02-11T07:27:20;15.25;11.50;8.50
71097;PMS7003;58754;47.622;-2.986;2023-02-11T07:29:45;10.75;9.50;7.75
71097;PMS7003;58754;47.622;-2.986;2023-02-11T07:32:12;13.25;10.25;9.25
71097;PMS7003;58754;47.622;-2.986;2023-02-11T07:34:38;12.25;9.75;8.50
71097;PMS7003;58754;47.622;-2.986;2023-02-11T07:37:04;10.75;9.00;8.00
71097;PMS7003;58754;47.622;-2.986;2023-02-11T07:39:29;12.25;12.25;8.50
71097;PMS7003;58754;47.622;-2.986;2023-02-11T07:41:55;10.75;9.00;7.00
71097;PMS7003;58754;47.622;-2.986;2023-02-11T07:44:21;11.00;10.00;7.00
71097;PMS7003;58754;47.622;-2.986;2023-02-11T07:46:47;4.25;4.25;2.00
71097;PMS7003;58754;47.622;-2.986;2023-02-11T07:49:13;8.75;8.75;7.25
71097;PMS7003;58754;47.622;-2.986;2023-02-11T07:51:40;10.75;9.50;7.25
71097;PMS7003;58754;47.622;-2.986;2023-02-11T07:54:06;9.00;7.25;5.00
71097;PMS7003;58754;47.622;-2.986;2023-02-11T07:56:32;10.25;9.00;6.50
71097;PMS7003;58754;47.622;-2.986;2023-02-11T07:58:59;11.50;10.25;8.25
71097;PMS7003;58754;47.622;-2.986;2023-02-11T08:01:27;10.00;7.50;6.00
71097;PMS7003;58754;47.622;-2.986;2023-02-11T08:03:54;14.25;10.25;8.50
71097;PMS7003;58754;47.622;-2.986;2023-02-11T08:06:22;11.00;10.00;8.00
71097;PMS7003;58754;47.622;-2.986;2023-02-11T08:08:49;13.75;10.00;8.50
71097;PMS7003;58754;47.622;-2.986;2023-02-11T08:11:20;13.75;11.50;9.00
71097;PMS7003;58754;47.622;-2.986;2023-02-11T08:13:47;12.25;10.50;8.25
71097;PMS7003;58754;47.622;-2.986;2023-02-11T08:16:21;9.75;9.25;7.00
71097;PMS7003;58754;47.622;-2.986;2023-02-11T08:18:52;14.25;10.75;9.75
71097;PMS7003;58754;47.622;-2.986;2023-02-11T08:21:19;11.75;11.00;8.50
71097;PMS7003;58754;47.622;-2.986;2023-02-11T08:23:45;13.50;10.75;8.00
71097;PMS7003;58754;47.622;-2.986;2023-02-11T08:26:13;11.00;10.00;7.50
71097;PMS7003;58754;47.622;-2.986;2023-02-11T08:28:47;12.00;8.25;7.25
71097;PMS7003;58754;47.622;-2.986;2023-02-11T08:31:16;10.00;10.00;8.00
71097;PMS7003;58754;47.622;-2.986;2023-02-11T08:33:43;11.25;10.25;8.00
71097;PMS7003;58754;47.622;-2.986;2023-02-11T08:36:11;11.75;11.00;9.00
71097;PMS7003;58754;47.622;-2.986;2023-02-11T08:38:41;10.25;9.00;8.00
71097;PMS7003;58754;47.622;-2.986;2023-02-11T08:41:07;11.50;9.50;7.00
71097;PMS7003;58754;47.622;-2.986;2023-02-11T08:43:34;11.00;9.25;7.25
71097;PMS7003;58754;47.622;-2.986;2023-02-11T08:46:01;12.50;9.00;7.25
71097;PMS7003;58754;47.622;-2.986;2023-02-11T08:48:27;12.50;9.50;6.50
71097;PMS7003;58754;47.622;-2.986;2023-02-11T08:50:53;13.50;11.25;8.75
71097;PMS7003;58754;47.622;-2.986;2023-02-11T08:53:20;14.25;11.00;9.00
71097;PMS7003;58754;47.622;-2.986;2023-02-11T08:55:53;12.50;10.75;8.00
71097;PMS7003;58754;47.622;-2.986;2023-02-11T08:58:20;11.00;10.00;8.75
71097;PMS7003;58754;47.622;-2.986;2023-02-11T09:00:46;10.50;9.00;7.00
71097;PMS7003;58754;47.622;-2.986;2023-02-11T09:03:13;9.25;7.25;6.25
71097;PMS7003;58754;47.622;-2.986;2023-02-11T09:05:43;8.00;6.75;5.50
71097;PMS7003;58754;47.622;-2.986;2023-02-11T09:08:11;10.00;9.00;8.00
71097;PMS7003;58754;47.622;-2.986;2023-02-11T09:10:37;11.00;9.25;7.00
71097;PMS7003;58754;47.622;-2.986;2023-02-11T09:13:04;11.00;9.25;7.50
71097;PMS7003;58754;47.622;-2.986;2023-02-11T09:15:30;9.75;9.00;8.00
71097;PMS7003;58754;47.622;-2.986;2023-02-11T09:17:56;10.00;8.50;6.25
71097;PMS7003;58754;47.622;-2.986;2023-02-11T09:20:22;12.25;10.00;7.50
71097;PMS7003;58754;47.622;-2.986;2023-02-11T09:22:48;9.50;8.75;7.00
71097;PMS7003;58754;47.622;-2.986;2023-02-11T09:25:14;11.00;10.50;8.50
71097;PMS7003;58754;47.622;-2.986;2023-02-11T09:27:40;9.75;8.75;7.50
71097;PMS7003;58754;47.622;-2.986;2023-02-11T09:30:06;11.25;9.50;8.25
71097;PMS7003;58754;47.622;-2.986;2023-02-11T09:32:32;11.00;11.00;8.75
71097;PMS7003;58754;47.622;-2.986;2023-02-11T09:34:58;12.75;10.25;7.00
71097;PMS7003;58754;47.622;-2.986;2023-02-11T09:37:24;8.50;8.00;7.00
71097;PMS7003;58754;47.622;-2.986;2023-02-11T09:39:49;9.75;9.00;7.00
71097;PMS7003;58754;47.622;-2.986;2023-02-11T09:42:33;10.00;8.25;6.75
71097;PMS7003;58754;47.622;-2.986;2023-02-11T09:45:12;7.75;7.75;6.25
71097;PMS7003;58754;47.622;-2.986;2023-02-11T09:47:46;11.75;8.00;7.50
71097;PMS7003;58754;47.622;-2.986;2023-02-11T09:50:33;12.00;8.00;7.75
71097;PMS7003;58754;47.622;-2.986;2023-02-11T09:53:01;11.25;7.75;7.00
71097;PMS7003;58754;47.622;-2.986;2023-02-11T09:55:47;12.00;8.50;7.50
71097;PMS7003;58754;47.622;-2.986;2023-02-11T09:58:23;9.25;8.75;7.00
71097;PMS7003;58754;47.622;-2.986;2023-02-11T10:06:21;12.00;9.75;7.25
71097;PMS7003;58754;47.622;-2.986;2023-02-11T10:09:10;11.75;7.50;6.75
71097;PMS7003;58754;47.622;-2.986;2023-02-11T10:19:49;10.75;10.00;7.25
71097;PMS7003;58754;47.622;-2.986;2023-02-11T10:22:30;9.00;8.75;7.00
71097;PMS7003;58754;47.622;-2.986;2023-02-11T10:25:00;8.25;7.00;6.00
71097;PMS7003;58754;47.622;-2.986;2023-02-11T10:27:51;10.00;8.50;6.75
71097;PMS7003;58754;47.622;-2.986;2023-02-11T10:30:22;8.75;5.25;5.00
71097;PMS7003;58754;47.622;-2.986;2023-02-11T10:35:24;12.00;7.00;6.75
71097;PMS7003;58754;47.622;-2.986;2023-02-11T10:37:51;12.25;10.00;7.25
71097;PMS7003;58754;47.622;-2.986;2023-02-11T10:40:20;7.25;7.00;5.25
71097;PMS7003;58754;47.622;-2.986;2023-02-11T10:42:52;13.25;9.50;6.75
71097;PMS7003;58754;47.622;-2.986;2023-02-11T10:47:48;11.75;11.00;9.00
71097;PMS7003;58754;47.622;-2.986;2023-02-11T10:50:32;8.00;8.00;7.00
71097;PMS7003;58754;47.622;-2.986;2023-02-11T10:53:11;9.00;9.00;7.00
71097;PMS7003;58754;47.622;-2.986;2023-02-11T10:55:52;5.25;5.25;4.50
71097;PMS7003;58754;47.622;-2.986;2023-02-11T10:59:03;13.00;8.00;7.25
71097;PMS7003;58754;47.622;-2.986;2023-02-11T11:01:10;11.75;10.00;8.00
71097;PMS7003;58754;47.622;-2.986;2023-02-11T11:03:45;11.00;9.25;7.00
71097;PMS7003;58754;47.622;-2.986;2023-02-11T11:06:13;11.00;6.00;5.00
71097;PMS7003;58754;47.622;-2.986;2023-02-11T11:11:06;8.00;8.00;7.00
71097;PMS7003;58754;47.622;-2.986;2023-02-11T11:13:35;10.50;9.25;7.00
71097;PMS7003;58754;47.622;-2.986;2023-02-11T11:18:31;10.00;6.25;6.00
71097;PMS7003;58754;47.622;-2.986;2023-02-11T11:21:00;10.50;8.25;7.00
71097;PMS7003;58754;47.622;-2.986;2023-02-11T11:23:30;12.50;11.00;8.00
71097;PMS7003;58754;47.622;-2.986;2023-02-11T11:28:40;11.50;9.00;7.50
71097;PMS7003;58754;47.622;-2.986;2023-02-11T11:31:17;9.75;8.50;7.00
71097;PMS7003;58754;47.622;-2.986;2023-02-11T11:33:46;15.50;10.50;9.00
71097;PMS7003;58754;47.622;-2.986;2023-02-11T11:36:22;12.50;10.00;8.00
71097;PMS7003;58754;47.622;-2.986;2023-02-11T11:39:00;9.00;9.00;8.00
71097;PMS7003;58754;47.622;-2.986;2023-02-11T11:41:32;15.00;10.00;8.00
71097;PMS7003;58754;47.622;-2.986;2023-02-11T11:46:31;10.75;9.25;7.75
71097;PMS7003;58754;47.622;-2.986;2023-02-11T11:49:06;12.50;12.00;9.00
71097;PMS7003;58754;47.622;-2.986;2023-02-11T11:54:42;14.25;10.00;7.25
71097;PMS7003;58754;47.622;-2.986;2023-02-11T11:57:17;9.25;9.25;7.00
71097;PMS7003;58754;47.622;-2.986;2023-02-11T11:59:46;9.00;9.00;7.00
71097;PMS7003;58754;47.622;-2.986;2023-02-11T12:05:00;13.00;11.00;8.00
71097;PMS7003;58754;47.622;-2.986;2023-02-11T12:08:29;10.00;9.00;8.00
71097;PMS7003;58754;47.622;-2.986;2023-02-11T12:22:47;12.25;8.75;7.25
71097;PMS7003;58754;47.622;-2.986;2023-02-11T12:28:33;7.25;7.25;6.00
71097;PMS7003;58754;47.622;-2.986;2023-02-11T12:36:07;8.00;7.75;6.75
71097;PMS7003;58754;47.622;-2.986;2023-02-11T12:55:15;9.50;9.00;6.75
71097;PMS7003;58754;47.622;-2.986;2023-02-11T12:57:46;12.00;8.00;7.00
71097;PMS7003;58754;47.622;-2.986;2023-02-11T13:03:36;12.75;9.50;7.00
71097;PMS7003;58754;47.622;-2.986;2023-02-11T13:06:10;10.25;8.25;7.00
71097;PMS7003;58754;47.622;-2.986;2023-02-11T13:08:50;12.25;8.75;7.00
71097;PMS7003;58754;47.622;-2.986;2023-02-11T13:11:22;12.75;7.75;6.00
71097;PMS7003;58754;47.622;-2.986;2023-02-11T13:14:11;9.50;6.00;5.00
71097;PMS7003;58754;47.622;-2.986;2023-02-11T13:16:40;8.25;7.50;6.00
71097;PMS7003;58754;47.622;-2.986;2023-02-11T13:19:28;11.75;8.00;6.25
71097;PMS7003;58754;47.622;-2.986;2023-02-11T13:27:37;8.25;4.75;3.75
71097;PMS7003;58754;47.622;-2.986;2023-02-11T13:35:37;9.50;7.75;6.50
71097;PMS7003;58754;47.622;-2.986;2023-02-11T13:38:18;8.75;8.75;6.75
71097;PMS7003;58754;47.622;-2.986;2023-02-11T13:41:28;8.75;7.25;5.75
71097;PMS7003;58754;47.622;-2.986;2023-02-11T13:44:01;8.25;7.00;5.75
71097;PMS7003;58754;47.622;-2.986;2023-02-11T13:46:46;5.00;5.00;3.75
71097;PMS7003;58754;47.622;-2.986;2023-02-11T13:49:21;9.50;7.00;6.00
71097;PMS7003;58754;47.622;-2.986;2023-02-11T13:52:00;8.75;8.50;6.75
71097;PMS7003;58754;47.622;-2.986;2023-02-11T13:54:33;11.25;9.50;5.75
71097;PMS7003;58754;47.622;-2.986;2023-02-11T13:57:20;8.25;7.50;5.25
71097;PMS7003;58754;47.622;-2.986;2023-02-11T13:59:51;9.50;7.00;5.00
71097;PMS7003;58754;47.622;-2.986;2023-02-11T14:05:21;11.00;7.75;6.25
71097;PMS7003;58754;47.622;-2.986;2023-02-11T14:16:08;10.50;8.75;6.75
71097;PMS7003;58754;47.622;-2.986;2023-02-11T14:21:16;9.00;6.75;5.75
71097;PMS7003;58754;47.622;-2.986;2023-02-11T14:42:52;9.00;6.50;6.00
71097;PMS7003;58754;47.622;-2.986;2023-02-11T14:45:23;7.25;7.25;6.75
71097;PMS7003;58754;47.622;-2.986;2023-02-11T14:47:57;7.50;7.25;6.75
71097;PMS7003;58754;47.622;-2.986;2023-02-11T14:50:38;9.25;9.25;7.25
71097;PMS7003;58754;47.622;-2.986;2023-02-11T14:53:23;11.00;7.25;6.50
71097;PMS7003;58754;47.622;-2.986;2023-02-11T14:55:50;7.50;7.00;6.00
71097;PMS7003;58754;47.622;-2.986;2023-02-11T14:58:19;8.00;7.25;6.50
71097;PMS7003;58754;47.622;-2.986;2023-02-11T15:00:56;9.00;7.00;6.00
71097;PMS7003;58754;47.622;-2.986;2023-02-11T15:03:25;8.75;7.00;6.00
71097;PMS7003;58754;47.622;-2.986;2023-02-11T15:05:55;8.25;8.25;7.00
71097;PMS7003;58754;47.622;-2.986;2023-02-11T15:08:33;6.00;6.00;5.25
71097;PMS7003;58754;47.622;-2.986;2023-02-11T15:11:01;6.00;6.00;5.00
71097;PMS7003;58754;47.622;-2.986;2023-02-11T15:13:32;9.75;8.00;7.50
71097;PMS7003;58754;47.622;-2.986;2023-02-11T15:16:06;6.00;6.00;5.25
71097;PMS7003;58754;47.622;-2.986;2023-02-11T15:18:38;8.25;8.00;7.00
71097;PMS7003;58754;47.622;-2.986;2023-02-11T15:21:08;9.50;7.50;5.00
71097;PMS7003;58754;47.622;-2.986;2023-02-11T15:23:35;8.00;8.00;7.00
71097;PMS7003;58754;47.622;-2.986;2023-02-11T15:26:01;8.00;7.50;7.00
71097;PMS7003;58754;47.622;-2.986;2023-02-11T15:28:31;10.50;9.00;6.75
71097;PMS7003;58754;47.622;-2.986;2023-02-11T15:30:59;8.25;8.00;7.00
71097;PMS7003;58754;47.622;-2.986;2023-02-11T15:33:30;9.50;8.75;7.50
71097;PMS7003;58754;47.622;-2.986;2023-02-11T15:36:00;5.25;5.25;5.00
71097;PMS7003;58754;47.622;-2.986;2023-02-11T15:38:27;10.50;8.25;7.00
71097;PMS7003;58754;47.622;-2.986;2023-02-11T15:40:58;8.75;6.50;5.00
71097;PMS7003;58754;47.622;-2.986;2023-02-11T15:43:42;8.75;8.75;7.00
71097;PMS7003;58754;47.622;-2.986;2023-02-11T15:46:10;10.75;7.25;6.00
71097;PMS7003;58754;47.622;-2.986;2023-02-11T15:48:43;7.50;7.25;6.50
71097;PMS7003;58754;47.622;-2.986;2023-02-11T15:51:29;8.00;7.00;5.75
71097;PMS7003;58754;47.622;-2.986;2023-02-11T15:53:59;8.50;8.00;6.00
71097;PMS7003;58754;47.622;-2.986;2023-02-11T15:56:29;11.50;8.25;6.75
71097;PMS7003;58754;47.622;-2.986;2023-02-11T15:59:08;13.00;10.00;7.00
71097;PMS7003;58754;47.622;-2.986;2023-02-11T16:01:54;7.25;7.25;6.00
71097;PMS7003;58754;47.622;-2.986;2023-02-11T16:04:29;7.25;7.25;6.25
71097;PMS7003;58754;47.622;-2.986;2023-02-11T16:06:55;7.50;6.50;6.00
71097;PMS7003;58754;47.622;-2.986;2023-02-11T16:09:39;9.25;8.75;7.00
71097;PMS7003;58754;47.622;-2.986;2023-02-11T16:12:20;9.50;7.25;6.50
71097;PMS7003;58754;47.622;-2.986;2023-02-11T16:14:48;13.75;10.75;7.75
71097;PMS7003;58754;47.622;-2.986;2023-02-11T16:19:43;8.00;8.00;6.00
71097;PMS7003;58754;47.622;-2.986;2023-02-11T16:22:15;7.25;6.00;4.00
71097;PMS7003;58754;47.622;-2.986;2023-02-11T16:24:44;8.25;8.25;7.25
71097;PMS7003;58754;47.622;-2.986;2023-02-11T16:27:54;8.75;5.75;5.00
71097;PMS7003;58754;47.622;-2.986;2023-02-11T16:30:03;10.50;8.75;7.50
71097;PMS7003;58754;47.622;-2.986;2023-02-11T16:32:31;9.50;7.75;6.25
71097;PMS7003;58754;47.622;-2.986;2023-02-11T16:34:57;8.00;8.00;6.75
71097;PMS7003;58754;47.622;-2.986;2023-02-11T16:37:25;13.00;9.00;7.50
71097;PMS7003;58754;47.622;-2.986;2023-02-11T16:39:57;10.50;8.50;7.25
71097;PMS7003;58754;47.622;-2.986;2023-02-11T16:42:23;8.75;8.75;8.00
71097;PMS7003;58754;47.622;-2.986;2023-02-11T16:44:49;11.00;8.25;6.25